Time;durP1;ratioP1;P1;durP2;ratioP2;P2;SDS_P1;SDS_P2;PMS_P1;PMS_P2;Temp;Humidity;BMP_temperature;BMP_pressure;BME280_temperature;BME280_humidity;BME280_pressure;Samples;Min_cycle;Max_cycle;Signal;HPM_P1;HPM_P2
2022/03/15 00:00:27;;;;;;;;;4.00;3.00;;;;;-146.25;100.00;57879.81;5056282;28;45370;-70
2022/03/15 00:02:54;;;;;;;;;4.00;3.00;;;;;-146.25;100.00;57879.81;5055516;28;45550;-70
2022/03/15 00:05:20;;;;;;;;;4.00;4.00;;;;;-146.25;100.00;57879.81;5055518;28;45524;-70
2022/03/15 00:07:47;;;;;;;;;3.00;3.00;;;;;-146.25;100.00;57879.81;5055948;28;45417;-70
2022/03/15 00:10:13;;;;;;;;;4.00;3.00;;;;;-146.25;100.00;57879.81;5056731;28;45723;-70
2022/03/15 00:12:43;;;;;;;;;3.67;2.67;;;;;-146.25;100.00;57879.81;5055861;28;45567;-70
2022/03/15 00:15:10;;;;;;;;;3.67;3.00;;;;;-146.25;100.00;57879.81;5056150;28;45397;-70
2022/03/15 00:17:40;;;;;;;;;4.00;3.33;;;;;-146.25;100.00;57879.81;5055616;28;45794;-70
2022/03/15 00:20:07;;;;;;;;;2.33;2.33;;;;;-146.25;100.00;57879.81;5054555;28;45385;-70
2022/03/15 00:22:35;;;;;;;;;3.00;3.00;;;;;-146.25;100.00;57879.81;5056363;28;45510;-70
2022/03/15 00:25:06;;;;;;;;;4.00;3.00;;;;;-146.25;100.00;57879.81;5055766;28;46168;-70
2022/03/15 00:27:35;;;;;;;;;5.33;4.33;;;;;-146.25;100.00;57879.81;5055703;28;45465;-70
2022/03/15 00:30:04;;;;;;;;;3.33;3.00;;;;;-146.25;100.00;57879.81;5054486;28;45474;-70
2022/03/15 00:32:30;;;;;;;;;4.00;3.00;;;;;-146.25;100.00;57879.81;5056003;28;45374;-70
2022/03/15 00:34:55;;;;;;;;;6.00;3.67;;;;;-146.25;100.00;57879.81;5053425;28;45568;-69
2022/03/15 00:37:21;;;;;;;;;3.50;3.50;;;;;-146.25;100.00;57879.81;5055235;28;45797;-70
2022/03/15 00:39:46;;;;;;;;;4.33;3.33;;;;;-146.25;100.00;57879.81;5055493;28;45609;-70
2022/03/15 00:42:13;;;;;;;;;4.00;4.00;;;;;-146.25;100.00;57879.81;5055766;28;45317;-70
2022/03/15 00:44:39;;;;;;;;;4.67;4.00;;;;;-146.25;100.00;57879.81;5054390;28;47698;-70
2022/03/15 00:47:05;;;;;;;;;6.67;5.00;;;;;-146.25;100.00;57879.81;5054487;28;45410;-71
2022/03/15 00:49:31;;;;;;;;;5.67;4.67;;;;;-146.25;100.00;57879.81;5055832;28;45750;-70
2022/03/15 00:51:57;;;;;;;;;5.33;4.33;;;;;-146.25;100.00;57879.81;5055770;28;45470;-69
2022/03/15 00:54:23;;;;;;;;;5.00;4.33;;;;;-146.25;100.00;57879.81;5052711;28;45496;-71
2022/03/15 00:56:49;;;;;;;;;3.67;3.33;;;;;-146.25;100.00;57879.81;5055317;28;45493;-70
2022/03/15 00:59:15;;;;;;;;;6.25;5.00;;;;;-146.25;100.00;57879.81;5055918;28;45531;-70
2022/03/15 01:01:41;;;;;;;;;6.33;5.00;;;;;-146.25;100.00;57879.81;5055074;28;45422;-70
2022/03/15 01:04:06;;;;;;;;;4.00;3.00;;;;;-146.25;100.00;57879.81;5054848;28;45774;-70
2022/03/15 01:06:32;;;;;;;;;6.00;6.00;;;;;-146.25;100.00;57879.81;5069986;28;45524;-70
2022/03/15 01:08:57;;;;;;;;;3.50;3.50;;;;;-146.25;100.00;57879.81;5055140;28;45508;-70
2022/03/15 01:11:23;;;;;;;;;4.67;3.00;;;;;-146.25;100.00;57879.81;5053752;28;45661;-70
2022/03/15 01:13:49;;;;;;;;;4.33;4.33;;;;;-146.25;100.00;57879.81;5054767;28;46288;-70
2022/03/15 01:16:14;;;;;;;;;4.00;4.00;;;;;-146.25;100.00;57879.81;5054970;28;45378;-70
2022/03/15 01:18:41;;;;;;;;;6.33;4.00;;;;;-146.25;100.00;57879.81;5055010;28;45435;-70
2022/03/15 01:21:07;;;;;;;;;5.00;4.67;;;;;-146.25;100.00;57879.81;5055401;28;45478;-70
2022/03/15 01:23:32;;;;;;;;;5.67;4.00;;;;;-146.25;100.00;57879.81;5054978;28;45462;-70
2022/03/15 01:25:58;;;;;;;;;5.00;5.00;;;;;-146.25;100.00;57879.81;5054720;28;45356;-70
2022/03/15 01:28:24;;;;;;;;;3.00;3.00;;;;;-146.25;100.00;57879.81;5051561;28;45289;-69
2022/03/15 01:30:50;;;;;;;;;4.00;3.67;;;;;-146.25;100.00;57879.81;5054837;28;45452;-70
2022/03/15 01:33:17;;;;;;;;;5.00;4.00;;;;;-146.25;100.00;57879.81;5054950;28;45497;-70
2022/03/15 01:35:43;;;;;;;;;4.67;4.00;;;;;-146.25;100.00;57879.81;5054247;28;45485;-70
2022/03/15 01:38:09;;;;;;;;;5.00;4.00;;;;;-146.25;100.00;57879.81;5052205;28;45439;-70
2022/03/15 01:40:35;;;;;;;;;3.00;2.00;;;;;-146.25;100.00;57879.81;5054647;28;45872;-70
2022/03/15 01:43:02;;;;;;;;;3.00;3.00;;;;;-146.25;100.00;57879.81;5054659;28;45608;-69
2022/03/15 01:45:38;;;;;;;;;1.00;1.00;;;;;-146.25;100.00;57879.81;5054913;28;45445;-70
2022/03/15 01:48:05;;;;;;;;;4.00;4.00;;;;;-146.25;100.00;57879.81;5051945;28;45426;-70
2022/03/15 01:50:31;;;;;;;;;4.00;3.00;;;;;-146.25;100.00;57879.81;5052913;28;45508;-70
2022/03/15 01:52:57;;;;;;;;;4.33;3.00;;;;;-146.25;100.00;57879.81;5053926;28;45686;-69
2022/03/15 01:55:24;;;;;;;;;3.00;3.00;;;;;-146.25;100.00;57879.81;5054729;28;45441;-70
2022/03/15 01:57:50;;;;;;;;;3.75;3.00;;;;;-146.25;100.00;57879.81;5054500;28;45500;-70
2022/03/15 02:00:17;;;;;;;;;2.75;2.00;;;;;-146.25;100.00;57879.81;5058095;28;45502;-70
2022/03/15 02:02:44;;;;;;;;;2.67;2.33;;;;;-146.25;100.00;57879.81;5057770;28;45537;-70
2022/03/15 02:05:10;;;;;;;;;3.00;2.00;;;;;-146.25;100.00;57879.81;5059011;28;45488;-70
2022/03/15 02:07:36;;;;;;;;;2.33;2.00;;;;;-146.25;100.00;57879.81;5059559;28;45627;-70
2022/03/15 02:10:03;;;;;;;;;2.00;2.00;;;;;-146.25;100.00;57879.81;5059500;28;45458;-70
2022/03/15 02:12:29;;;;;;;;;2.00;2.00;;;;;-146.25;100.00;57879.81;5059440;28;45538;-70
2022/03/15 02:15:01;;;;;;;;;4.25;3.00;;;;;-146.25;100.00;57879.81;5059488;28;46076;-70
2022/03/15 02:17:27;;;;;;;;;2.75;2.00;;;;;-146.25;100.00;57879.81;5059284;28;45800;-70
2022/03/15 02:19:53;;;;;;;;;3.00;3.00;;;;;-146.25;100.00;57879.81;5059309;28;45658;-70
2022/03/15 02:22:19;;;;;;;;;4.00;4.00;;;;;-146.25;100.00;57879.81;5059029;28;45472;-70
2022/03/15 02:24:45;;;;;;;;;2.25;2.25;;;;;-146.25;100.00;57879.81;5057625;28;45422;-70
2022/03/15 02:27:11;;;;;;;;;3.00;3.00;;;;;-146.25;100.00;57879.81;5059024;28;45533;-69
2022/03/15 02:29:37;;;;;;;;;3.25;3.00;;;;;-146.25;100.00;57879.81;5059398;28;45408;-70
2022/03/15 02:32:03;;;;;;;;;3.00;2.00;;;;;-146.25;100.00;57879.81;5075155;28;45541;-70
2022/03/15 02:34:29;;;;;;;;;2.00;2.00;;;;;-146.25;100.00;57879.81;5059002;28;45548;-69
2022/03/15 02:36:56;;;;;;;;;3.67;2.00;;;;;-146.25;100.00;57879.81;5043978;28;45452;-70
2022/03/15 02:39:22;;;;;;;;;2.67;2.00;;;;;-146.25;100.00;57879.81;5047178;28;45850;-70
2022/03/15 02:41:48;;;;;;;;;3.25;2.00;;;;;-146.25;100.00;57879.81;5050168;28;45434;-70
2022/03/15 02:44:14;;;;;;;;;3.00;3.00;;;;;-146.25;100.00;57879.81;5058890;28;45469;-70
2022/03/15 02:46:39;;;;;;;;;2.50;2.00;;;;;-146.25;100.00;57879.81;5059179;28;45439;-70
2022/03/15 02:49:06;;;;;;;;;2.00;2.00;;;;;-146.25;100.00;57879.81;5059025;28;45359;-69
2022/03/15 02:51:32;;;;;;;;;2.00;2.00;;;;;-146.25;100.00;57879.81;5058088;28;45435;-70
2022/03/15 02:53:58;;;;;;;;;2.00;2.00;;;;;-146.25;100.00;57879.81;5058296;28;45755;-70
2022/03/15 02:56:24;;;;;;;;;2.00;2.00;;;;;-146.25;100.00;57879.81;5058632;28;45508;-70
2022/03/15 02:58:49;;;;;;;;;3.50;3.00;;;;;-146.25;100.00;57879.81;5042808;28;45259;-69
2022/03/15 03:01:15;;;;;;;;;4.25;3.00;;;;;-146.25;100.00;57879.81;5053872;28;46021;-69
2022/03/15 03:03:41;;;;;;;;;2.00;1.67;;;;;-146.25;100.00;57879.81;5058443;28;45436;-70
2022/03/15 03:06:07;;;;;;;;;3.50;3.00;;;;;-146.25;100.00;57879.81;5058743;28;45454;-70
2022/03/15 03:08:34;;;;;;;;;3.75;2.00;;;;;-146.25;100.00;57879.81;5058829;28;45425;-70
2022/03/15 03:11:00;;;;;;;;;5.75;3.50;;;;;-146.25;100.00;57879.81;5057885;28;45734;-70
2022/03/15 03:13:26;;;;;;;;;3.00;2.00;;;;;-146.25;100.00;57879.81;5053260;28;45434;-70
2022/03/15 03:15:57;;;;;;;;;3.75;2.00;;;;;-146.25;100.00;57879.81;5090504;27;45403;-70
2022/03/15 03:18:32;;;;;;;;;3.00;2.75;;;;;-146.25;100.00;57879.81;5047003;28;45311;-70
2022/03/15 03:20:58;;;;;;;;;2.50;2.00;;;;;-146.25;100.00;57879.81;5058118;28;45638;-69
2022/03/15 03:23:24;;;;;;;;;2.75;2.50;;;;;-146.25;100.00;57879.81;5058249;28;45328;-70
2022/03/15 03:25:50;;;;;;;;;2.00;2.00;;;;;-146.25;100.00;57879.81;5058812;28;45310;-70
2022/03/15 03:28:16;;;;;;;;;2.00;2.00;;;;;-146.25;100.00;57879.81;5058729;28;45216;-70
2022/03/15 03:30:46;;;;;;;;;4.50;3.00;;;;;-146.25;100.00;57879.81;5058340;28;46191;-70
2022/03/15 03:33:12;;;;;;;;;4.25;4.00;;;;;-146.25;100.00;57879.81;5058857;28;45306;-70
2022/03/15 03:35:38;;;;;;;;;3.75;2.75;;;;;-146.25;100.00;57879.81;5059056;28;45441;-70
2022/03/15 03:38:05;;;;;;;;;4.00;3.00;;;;;-146.25;100.00;57879.81;5058913;28;45351;-70
2022/03/15 03:40:31;;;;;;;;;2.25;2.00;;;;;-146.25;100.00;57879.81;5058675;28;45271;-70
2022/03/15 03:42:57;;;;;;;;;3.00;2.75;;;;;-146.25;100.00;57879.81;5058687;28;45365;-70
2022/03/15 03:45:23;;;;;;;;;2.25;2.00;;;;;-146.25;100.00;57879.81;5058826;28;45446;-70
2022/03/15 03:47:49;;;;;;;;;3.00;3.00;;;;;-146.25;100.00;57879.81;5058276;28;45448;-70
2022/03/15 03:50:14;;;;;;;;;2.25;2.25;;;;;-146.25;100.00;57879.81;5058395;28;46310;-70
2022/03/15 03:52:40;;;;;;;;;2.00;2.00;;;;;-146.25;100.00;57879.81;5058575;28;45651;-70
2022/03/15 03:55:06;;;;;;;;;2.67;2.67;;;;;-146.25;100.00;57879.81;5058777;28;45553;-70
2022/03/15 03:57:32;;;;;;;;;2.75;2.50;;;;;-146.25;100.00;57879.81;5057680;28;45538;-70
2022/03/15 03:59:58;;;;;;;;;3.00;3.00;;;;;-146.25;100.00;57879.81;5058382;28;45260;-70
2022/03/15 04:02:26;;;;;;;;;4.25;3.00;;;;;-146.25;100.00;57879.81;5058382;28;45471;-70
2022/03/15 04:04:54;;;;;;;;;3.00;3.00;;;;;-146.25;100.00;57879.81;5058094;28;45445;-70
2022/03/15 04:07:20;;;;;;;;;3.00;3.00;;;;;-146.25;100.00;57879.81;5058642;28;46151;-70
2022/03/15 04:09:46;;;;;;;;;2.00;2.00;;;;;-146.25;100.00;57879.81;5057742;28;45413;-70
2022/03/15 04:12:12;;;;;;;;;2.67;2.33;;;;;-146.25;100.00;57879.81;5057959;28;45836;-70
2022/03/15 04:14:38;;;;;;;;;4.00;2.00;;;;;-146.25;100.00;57879.81;5058527;28;45425;-70
2022/03/15 04:17:04;;;;;;;;;1.67;1.00;;;;;-146.25;100.00;57879.81;5058587;28;45414;-70
2022/03/15 04:19:30;;;;;;;;;5.00;4.00;;;;;-146.25;100.00;57879.81;5073591;27;48062;-70
2022/03/15 04:21:56;;;;;;;;;2.33;2.33;;;;;-146.25;100.00;57879.81;5056964;28;45355;-70
2022/03/15 04:24:21;;;;;;;;;5.50;5.00;;;;;-146.25;100.00;57879.81;5058223;28;45330;-70
2022/03/15 04:26:47;;;;;;;;;4.00;4.00;;;;;-146.25;100.00;57879.81;5058296;28;45334;-70
2022/03/15 04:29:13;;;;;;;;;3.00;3.00;;;;;-146.25;100.00;57879.81;5058547;28;45958;-70
2022/03/15 04:31:39;;;;;;;;;2.00;2.00;;;;;-146.25;100.00;57879.81;5058271;28;45227;-70
2022/03/15 04:34:05;;;;;;;;;3.67;3.00;;;;;-146.25;100.00;57879.81;5057870;28;45468;-70
2022/03/15 04:36:30;;;;;;;;;4.00;3.00;;;;;-146.25;100.00;57879.81;5058277;28;45453;-70
2022/03/15 04:38:57;;;;;;;;;13.75;12.75;;;;;-146.25;100.00;57879.81;5057676;28;45480;-70
2022/03/15 04:41:22;;;;;;;;;6.00;6.00;;;;;-146.25;100.00;57879.81;5057869;28;45310;-70
2022/03/15 04:43:48;;;;;;;;;5.25;4.25;;;;;-146.25;100.00;57879.81;5056407;28;45509;-70
2022/03/15 04:46:14;;;;;;;;;6.00;6.00;;;;;-146.25;100.00;57879.81;5057393;28;45276;-70
2022/03/15 04:48:39;;;;;;;;;8.00;5.50;;;;;-146.25;100.00;57879.81;5056266;28;45498;-70
2022/03/15 04:51:05;;;;;;;;;7.00;4.75;;;;;-146.25;100.00;57879.81;5072924;27;45606;-70
2022/03/15 04:53:31;;;;;;;;;4.00;4.00;;;;;-146.25;100.00;57879.81;5057332;28;45430;-70
2022/03/15 04:55:57;;;;;;;;;9.50;8.75;;;;;-146.25;100.00;57879.81;5057706;28;45419;-70
2022/03/15 04:58:23;;;;;;;;;8.75;7.50;;;;;-146.25;100.00;57879.81;5057331;28;46326;-70
2022/03/15 05:00:49;;;;;;;;;6.50;5.00;;;;;-146.25;100.00;57879.81;5057399;28;45456;-70
2022/03/15 05:03:16;;;;;;;;;16.75;14.50;;;;;-146.25;100.00;57879.81;5057105;28;45490;-71
2022/03/15 05:05:45;;;;;;;;;79.75;63.25;;;;;-146.25;100.00;57879.81;5057953;28;45333;-71
2022/03/15 05:08:12;;;;;;;;;14.25;13.75;;;;;-146.25;100.00;57879.81;5057109;28;46605;-70
2022/03/15 05:13:22;;;;;;;;;19.75;17.75;;;;;-146.25;100.00;57879.81;5057165;28;45470;-70
2022/03/15 05:15:48;;;;;;;;;6.00;6.00;;;;;-146.25;100.00;57879.81;5056103;28;45479;-70
2022/03/15 05:18:14;;;;;;;;;49.25;37.75;;;;;-146.25;100.00;57879.81;5057512;28;46516;-70
2022/03/15 05:20:39;;;;;;;;;8.00;7.25;;;;;-146.25;100.00;57879.81;5057351;28;45553;-70
2022/03/15 05:23:05;;;;;;;;;5.25;4.50;;;;;-146.25;100.00;57879.81;5057254;28;45411;-69
2022/03/15 05:25:31;;;;;;;;;5.00;4.75;;;;;-146.25;100.00;57879.81;5057310;28;45564;-70
2022/03/15 05:27:57;;;;;;;;;4.25;4.00;;;;;-146.25;100.00;57879.81;5055599;28;47744;-70
2022/03/15 05:30:23;;;;;;;;;12.25;11.75;;;;;-146.25;100.00;57879.81;5056435;28;45577;-70
2022/03/15 05:32:49;;;;;;;;;8.50;7.75;;;;;-146.25;100.00;57879.81;5056134;28;45515;-70
2022/03/15 05:35:15;;;;;;;;;12.25;10.75;;;;;-146.25;100.00;57879.81;5056914;28;45701;-70
2022/03/15 05:37:41;;;;;;;;;26.00;20.25;;;;;-146.25;100.00;57879.81;5056603;28;46597;-70
2022/03/15 05:40:07;;;;;;;;;6.50;5.75;;;;;-146.25;100.00;57879.81;5057070;28;45507;-69
2022/03/15 05:42:33;;;;;;;;;10.50;9.25;;;;;-146.25;100.00;57879.81;5072669;28;45612;-69
2022/03/15 05:44:59;;;;;;;;;9.75;8.50;;;;;-146.25;100.00;57879.81;5057089;28;45484;-69
2022/03/15 05:47:25;;;;;;;;;5.50;4.75;;;;;-146.25;100.00;57879.81;5056735;28;46112;-69
2022/03/15 05:49:50;;;;;;;;;8.00;6.00;;;;;-146.25;100.00;57879.81;5054512;28;45820;-69
2022/03/15 05:52:16;;;;;;;;;9.50;7.75;;;;;-146.25;100.00;57879.81;5057238;28;45255;-69
2022/03/15 05:54:42;;;;;;;;;8.25;7.00;;;;;-146.25;100.00;57879.81;5057163;28;45485;-69
2022/03/15 05:57:07;;;;;;;;;5.75;5.25;;;;;-146.25;100.00;57879.81;5056640;28;46147;-69
2022/03/15 05:59:33;;;;;;;;;9.00;6.00;;;;;-146.25;100.00;57879.81;5056977;28;45430;-69
2022/03/15 06:01:58;;;;;;;;;10.75;9.75;;;;;-146.25;100.00;57879.81;5056016;28;45397;-69
2022/03/15 06:04:25;;;;;;;;;7.00;5.25;;;;;-146.25;100.00;57879.81;5056935;28;45453;-70
2022/03/15 06:06:51;;;;;;;;;7.25;3.75;;;;;-146.25;100.00;57879.81;5056469;28;46122;-69
2022/03/15 06:09:17;;;;;;;;;6.00;5.33;;;;;-146.25;100.00;57879.81;5056822;28;45561;-70
2022/03/15 06:11:44;;;;;;;;;4.00;4.00;;;;;-146.25;100.00;57879.81;5056784;28;45473;-69
2022/03/15 06:14:09;;;;;;;;;4.33;3.33;;;;;-146.25;100.00;57879.81;5056359;28;45512;-69
2022/03/15 06:16:35;;;;;;;;;6.67;4.33;;;;;-146.25;100.00;57879.81;5056419;28;45298;-70
2022/03/15 06:19:02;;;;;;;;;7.00;5.00;;;;;-146.25;100.00;57879.81;5056532;28;45267;-70
2022/03/15 06:21:27;;;;;;;;;8.00;6.00;;;;;-146.25;100.00;57879.81;5056601;28;45315;-69
2022/03/15 06:23:53;;;;;;;;;4.33;3.33;;;;;-146.25;100.00;57879.81;5056620;28;45358;-70
2022/03/15 06:26:20;;;;;;;;;7.00;5.67;;;;;-146.25;100.00;57879.81;5055175;28;46189;-70
2022/03/15 06:28:46;;;;;;;;;5.67;2.00;;;;;-146.25;100.00;57879.81;5056825;28;45374;-69
2022/03/15 06:31:13;;;;;;;;;7.00;4.00;;;;;-146.25;100.00;57879.81;5056517;28;45295;-69
2022/03/15 06:33:39;;;;;;;;;7.67;5.67;;;;;-146.25;100.00;57879.81;5056354;28;45386;-69
2022/03/15 06:36:11;;;;;;;;;7.33;7.00;;;;;-146.25;100.00;57879.81;5088721;27;47967;-69
2022/03/15 06:38:38;;;;;;;;;7.33;6.00;;;;;-146.25;100.00;57879.81;5055885;28;45560;-69
2022/03/15 06:41:04;;;;;;;;;9.67;8.00;;;;;-146.25;100.00;57879.81;5056020;28;45310;-70
2022/03/15 06:43:29;;;;;;;;;9.33;6.00;;;;;-146.25;100.00;57879.81;5056302;28;45414;-70
2022/03/15 06:45:55;;;;;;;;;8.00;7.67;;;;;-146.25;100.00;57879.81;5057423;28;46371;-70
2022/03/15 06:48:20;;;;;;;;;15.00;12.67;;;;;-146.25;100.00;57879.81;5059812;28;45346;-70
2022/03/15 06:50:46;;;;;;;;;7.00;5.00;;;;;-146.25;100.00;57879.81;5092687;27;45387;-70
2022/03/15 06:53:11;;;;;;;;;10.00;8.00;;;;;-146.25;100.00;57879.81;5059784;28;45392;-69
2022/03/15 06:55:37;;;;;;;;;8.00;7.00;;;;;-146.25;100.00;57879.81;5059472;28;45514;-69
2022/03/15 06:58:03;;;;;;;;;7.00;7.00;;;;;-146.25;100.00;57879.81;5092053;27;45473;-70
2022/03/15 07:00:28;;;;;;;;;13.33;7.67;;;;;-146.25;100.00;57879.81;5059481;28;45398;-70
2022/03/15 07:02:54;;;;;;;;;10.67;7.00;;;;;-146.25;100.00;57879.81;5075147;28;45674;-70
2022/03/15 07:05:19;;;;;;;;;16.00;8.00;;;;;-146.25;100.00;57879.81;5059573;28;46467;-69
2022/03/15 07:07:45;;;;;;;;;8.33;6.00;;;;;-146.25;100.00;57879.81;5059261;28;45357;-69
2022/03/15 07:10:12;;;;;;;;;8.67;5.33;;;;;-146.25;100.00;57879.81;5057542;28;45470;-69
2022/03/15 07:12:38;;;;;;;;;7.33;6.33;;;;;-146.25;100.00;57879.81;5058114;28;45196;-70
2022/03/15 07:15:06;;;;;;;;;11.67;8.67;;;;;-146.25;100.00;57879.81;5059166;28;46551;-70
2022/03/15 07:17:32;;;;;;;;;7.33;6.00;;;;;-146.25;100.00;57879.81;5059097;28;45334;-70
2022/03/15 07:19:58;;;;;;;;;15.00;12.50;;;;;-146.25;100.00;57879.81;5059139;28;45582;-70
2022/03/15 07:22:25;;;;;;;;;37.75;30.75;;;;;-146.25;100.00;57879.81;5059349;28;45516;-70
2022/03/15 07:24:51;;;;;;;;;22.25;19.25;;;;;-146.25;100.00;57879.81;5059199;28;46307;-70
2022/03/15 07:27:18;;;;;;;;;15.33;11.67;;;;;-146.25;100.00;57879.81;5058746;28;45528;-69
2022/03/15 07:29:43;;;;;;;;;12.00;8.00;;;;;-146.25;100.00;57879.81;5058063;28;45315;-68
2022/03/15 07:32:09;;;;;;;;;12.00;9.33;;;;;-146.25;100.00;57879.81;5067737;28;45489;-69
2022/03/15 07:34:35;;;;;;;;;7.00;6.33;;;;;-146.25;100.00;57879.81;5065908;27;46327;-69
2022/03/15 07:37:01;;;;;;;;;10.00;8.00;;;;;-146.25;100.00;57879.81;5065809;27;45489;-69
2022/03/15 07:39:26;;;;;;;;;12.33;9.33;;;;;-146.25;100.00;57879.81;5063201;28;45387;-69
2022/03/15 07:41:52;;;;;;;;;7.33;5.67;;;;;-146.25;100.00;57879.81;5067196;28;45426;-69
2022/03/15 07:44:19;;;;;;;;;6.67;6.33;;;;;-146.25;100.00;57879.81;5057800;28;46253;-70
2022/03/15 07:46:48;;;;;;;;;7.33;6.00;;;;;-146.25;100.00;57879.81;5057876;28;45355;-70
2022/03/15 07:49:18;;;;;;;;;8.33;6.00;;;;;-146.25;100.00;57879.81;5058822;28;45492;-70
2022/03/15 07:51:44;;;;;;;;;12.33;6.67;;;;;-146.25;100.00;57879.81;5057378;28;45932;-70
2022/03/15 07:54:10;;;;;;;;;10.00;7.00;;;;;-146.25;100.00;57879.81;5054146;28;45624;-70
2022/03/15 07:56:36;;;;;;;;;8.67;6.00;;;;;-146.25;100.00;57879.81;5056250;28;45462;-70
2022/03/15 07:59:02;;;;;;;;;8.33;6.00;;;;;-146.25;100.00;57879.81;5055668;28;45517;-71
2022/03/15 08:01:28;;;;;;;;;14.00;12.67;;;;;-146.25;100.00;57879.81;5057626;28;45382;-70
2022/03/15 08:03:54;;;;;;;;;14.00;11.00;;;;;-146.25;100.00;57879.81;5056055;28;46408;-71
2022/03/15 08:06:19;;;;;;;;;12.00;8.00;;;;;-146.25;100.00;57879.81;5057709;28;45348;-70
2022/03/15 08:08:45;;;;;;;;;17.67;11.33;;;;;-146.25;100.00;57879.81;5057594;28;45536;-70
2022/03/15 08:11:10;;;;;;;;;9.00;7.00;;;;;-146.25;100.00;57879.81;5058483;28;45422;-70
2022/03/15 08:13:36;;;;;;;;;10.00;6.33;;;;;-146.25;100.00;57879.81;5057016;28;46442;-70
2022/03/15 08:16:04;;;;;;;;;13.00;9.00;;;;;-146.25;100.00;57879.81;5056624;28;45275;-70
2022/03/15 08:18:30;;;;;;;;;9.67;7.00;;;;;-146.25;100.00;57879.81;5057077;28;45315;-70
2022/03/15 08:20:56;;;;;;;;;14.00;7.67;;;;;-146.25;100.00;57879.81;5058578;28;45348;-70
2022/03/15 08:23:23;;;;;;;;;5.33;5.00;;;;;-146.25;100.00;57879.81;5058065;28;46026;-70
2022/03/15 08:25:48;;;;;;;;;10.00;7.33;;;;;-146.25;100.00;57879.81;5058024;28;45318;-70
2022/03/15 08:28:14;;;;;;;;;12.67;8.67;;;;;-146.25;100.00;57879.81;5057979;28;45346;-70
2022/03/15 08:30:39;;;;;;;;;12.67;8.00;;;;;-146.25;100.00;57879.81;5090855;27;45520;-70
2022/03/15 08:33:05;;;;;;;;;8.33;7.67;;;;;-146.25;100.00;57879.81;5057599;28;45485;-74
2022/03/15 08:35:31;;;;;;;;;5.00;2.00;;;;;-146.25;100.00;57879.81;5056964;28;45426;-76
2022/03/15 08:37:56;;;;;;;;;7.00;4.67;;;;;-146.25;100.00;57879.81;5052675;28;45454;-74
2022/03/15 08:40:23;;;;;;;;;13.00;7.33;;;;;-146.25;100.00;57879.81;5056782;28;45745;-75
2022/03/15 08:42:49;;;;;;;;;10.33;6.33;;;;;-146.25;100.00;57879.81;5025875;27;45381;-74
2022/03/15 08:45:15;;;;;;;;;6.00;4.33;;;;;-146.25;100.00;57879.81;5082623;27;45333;-73
2022/03/15 08:47:41;;;;;;;;;10.67;7.00;;;;;-146.25;100.00;57879.81;5040176;28;45938;-73
2022/03/15 08:50:09;;;;;;;;;8.67;6.67;;;;;-146.25;100.00;57879.81;5036973;28;45330;-74
2022/03/15 08:52:35;;;;;;;;;6.67;6.00;;;;;-146.25;100.00;57879.81;5034218;28;46484;-73
2022/03/15 08:55:02;;;;;;;;;9.67;6.33;;;;;-146.25;100.00;57879.81;5034937;28;45554;-73
2022/03/15 08:57:29;;;;;;;;;10.00;5.67;;;;;-146.25;100.00;57879.81;5034981;28;45626;-75
2022/03/15 08:59:54;;;;;;;;;10.67;7.00;;;;;-146.25;100.00;57879.81;5035183;28;45533;-73
2022/03/15 09:02:20;;;;;;;;;7.50;6.00;;;;;-146.25;100.00;57879.81;5034875;28;45439;-73
2022/03/15 09:04:46;;;;;;;;;10.33;6.33;;;;;-146.25;100.00;57879.81;5034426;28;45558;-73
2022/03/15 09:07:12;;;;;;;;;7.00;6.33;;;;;-146.25;100.00;57879.81;5035431;28;45411;-74
2022/03/15 09:09:38;;;;;;;;;8.67;6.00;;;;;-146.25;100.00;57879.81;5034605;28;45525;-75
2022/03/15 09:12:04;;;;;;;;;6.00;5.00;;;;;-146.25;100.00;57879.81;5033194;28;48388;-75
2022/03/15 09:14:30;;;;;;;;;10.00;4.33;;;;;-146.25;100.00;57879.81;5033358;28;45403;-74
2022/03/15 09:16:57;;;;;;;;;16.67;16.00;;;;;-146.25;100.00;57879.81;5035978;28;45552;-73
2022/03/15 09:19:23;;;;;;;;;7.00;5.00;;;;;-146.25;100.00;57879.81;5035066;28;45447;-74
2022/03/15 09:21:49;;;;;;;;;6.67;6.00;;;;;-146.25;100.00;57879.81;5033687;28;45656;-78
2022/03/15 09:24:15;;;;;;;;;7.33;5.00;;;;;-146.25;100.00;57879.81;5035284;28;45454;-74
2022/03/15 09:26:44;;;;;;;;;8.00;5.00;;;;;-146.25;100.00;57879.81;5035382;28;45454;-74
2022/03/15 09:29:10;;;;;;;;;7.67;5.00;;;;;-146.25;100.00;57879.81;5035548;28;45243;-75
2022/03/15 09:31:36;;;;;;;;;7.00;5.00;;;;;-146.25;100.00;57879.81;5033852;28;46414;-73
2022/03/15 09:34:02;;;;;;;;;5.33;4.00;;;;;-146.25;100.00;57879.81;5033877;28;45443;-72
2022/03/15 09:36:28;;;;;;;;;7.00;5.00;;;;;-146.25;100.00;57879.81;5035259;28;45555;-74
2022/03/15 09:38:57;;;;;;;;;6.67;5.00;;;;;-146.25;100.00;57879.81;5035757;28;45532;-72
2022/03/15 09:41:27;;;;;;;;;9.67;5.33;;;;;-146.25;100.00;57879.81;5034247;28;45446;-73
2022/03/15 09:43:55;;;;;;;;;7.67;6.00;;;;;-146.25;100.00;57879.81;5035172;28;45593;-72
2022/03/15 09:46:22;;;;;;;;;6.33;5.00;;;;;-146.25;100.00;57879.81;5057617;27;45447;-73
2022/03/15 09:48:54;;;;;;;;;8.67;7.33;;;;;-146.25;100.00;57879.81;5035042;28;45414;-75
2022/03/15 09:51:21;;;;;;;;;5.67;4.67;;;;;-146.25;100.00;57879.81;5031173;28;45555;-73
2022/03/15 09:53:48;;;;;;;;;7.00;6.00;;;;;-146.25;100.00;57879.81;5017293;28;45860;-72
2022/03/15 09:56:15;;;;;;;;;4.67;4.67;;;;;-146.25;100.00;57879.81;5035925;28;45383;-73
2022/03/15 09:58:41;;;;;;;;;5.33;4.67;;;;;-146.25;100.00;57879.81;5035359;28;45327;-72
2022/03/15 10:01:12;;;;;;;;;9.00;6.67;;;;;-146.25;100.00;57879.81;5033522;28;46811;-74
2022/03/15 10:03:38;;;;;;;;;9.67;7.00;;;;;-146.25;100.00;57879.81;5033311;28;45415;-73
2022/03/15 10:06:03;;;;;;;;;9.00;6.00;;;;;-146.25;100.00;57879.81;5034578;28;45321;-73
2022/03/15 10:08:29;;;;;;;;;4.33;4.00;;;;;-146.25;100.00;57879.81;5035371;28;45439;-73
2022/03/15 10:10:55;;;;;;;;;11.00;8.00;;;;;-146.25;100.00;57879.81;5034797;28;45613;-74
2022/03/15 10:13:21;;;;;;;;;9.00;8.00;;;;;-146.25;100.00;57879.81;5034354;28;45462;-72
2022/03/15 10:15:54;;;;;;;;;8.67;6.67;;;;;-146.25;100.00;57879.81;5034959;28;45394;-73
2022/03/15 10:18:21;;;;;;;;;5.00;4.00;;;;;-146.25;100.00;57879.81;5035103;28;45502;-73
2022/03/15 10:20:48;;;;;;;;;8.00;6.33;;;;;-146.25;100.00;57879.81;5037599;28;46212;-74
2022/03/15 10:23:16;;;;;;;;;8.00;8.00;;;;;-146.25;100.00;57879.81;5038422;28;45400;-72
2022/03/15 10:25:46;;;;;;;;;6.00;5.00;;;;;-146.25;100.00;57879.81;5036053;28;45654;-72
2022/03/15 10:28:13;;;;;;;;;6.67;5.67;;;;;-146.25;100.00;57879.81;5039122;28;45440;-73
2022/03/15 10:30:41;;;;;;;;;9.00;6.00;;;;;-146.25;100.00;57879.81;5038816;28;46229;-73
2022/03/15 10:33:06;;;;;;;;;10.00;5.00;;;;;-146.25;100.00;57879.81;5037940;28;45514;-73
2022/03/15 10:35:42;;;;;;;;;5.00;4.33;;;;;-146.25;100.00;57879.81;5039397;28;45434;-73
2022/03/15 10:38:09;;;;;;;;;4.00;3.00;;;;;-146.25;100.00;57879.81;5039825;28;45373;-73
2022/03/15 10:40:49;;;;;;;;;6.33;5.33;;;;;-146.25;100.00;57879.81;5039108;28;46556;-74
2022/03/15 10:43:20;;;;;;;;;3.67;2.00;;;;;-146.25;100.00;57879.81;5039431;28;45459;-73
2022/03/15 10:45:57;;;;;;;;;9.00;7.00;;;;;-146.25;100.00;57879.81;5039231;28;45325;-74
2022/03/15 10:48:27;;;;;;;;;5.67;5.00;;;;;-146.25;100.00;57879.81;5039739;28;45454;-74
2022/03/15 10:51:06;;;;;;;;;8.00;4.00;;;;;-146.25;100.00;57879.81;5039315;28;45395;-74
2022/03/15 10:53:45;;;;;;;;;5.67;4.67;;;;;-146.25;100.00;57879.81;5054440;28;45268;-74
2022/03/15 10:56:19;;;;;;;;;5.00;4.33;;;;;-146.25;100.00;57879.81;5039434;28;45441;-73
2022/03/15 10:58:53;;;;;;;;;6.00;5.00;;;;;-146.25;100.00;57879.81;5039525;28;45485;-74
2022/03/15 11:01:20;;;;;;;;;6.00;5.67;;;;;-146.25;100.00;57879.81;5037415;28;46991;-73
2022/03/15 11:04:02;;;;;;;;;7.00;5.00;;;;;-146.25;100.00;57879.81;5039176;28;45319;-73
2022/03/15 11:06:38;;;;;;;;;5.00;4.00;;;;;-146.25;100.00;57879.81;5039666;28;45375;-73